sensor_id;sensor_type;location;lat;lon;timestamp;pressure;altitude;pressure_sealevel;temperature;humidity
12991;BME280;6560;57.692;11.958;2022-08-03T00:01:00;100912.34;;;35.14;100.00
12991;BME280;6560;57.692;11.958;2022-08-03T00:03:26;100930.06;;;37.09;100.00
12991;BME280;6560;57.692;11.958;2022-08-03T00:05:51;100893.50;;;38.17;100.00
12991;BME280;6560;57.692;11.958;2022-08-03T00:08:17;100920.81;;;37.97;100.00
12991;BME280;6560;57.692;11.958;2022-08-03T00:10:42;100920.84;;;37.41;100.00
12991;BME280;6560;57.692;11.958;2022-08-03T00:13:08;100925.84;;;37.84;100.00
12991;BME280;6560;57.692;11.958;2022-08-03T00:15:33;100934.03;;;35.27;100.00
12991;BME280;6560;57.692;11.958;2022-08-03T00:17:59;100925.34;;;34.62;100.00
12991;BME280;6560;57.692;11.958;2022-08-03T00:20:25;100919.44;;;36.97;100.00
12991;BME280;6560;57.692;11.958;2022-08-03T00:22:50;100902.47;;;36.20;100.00
12991;BME280;6560;57.692;11.958;2022-08-03T00:25:16;100930.00;;;35.44;100.00
12991;BME280;6560;57.692;11.958;2022-08-03T00:27:42;100873.97;;;35.14;100.00
12991;BME280;6560;57.692;11.958;2022-08-03T00:30:07;100920.38;;;35.99;100.00
12991;BME280;6560;57.692;11.958;2022-08-03T00:32:33;100923.03;;;37.01;100.00
12991;BME280;6560;57.692;11.958;2022-08-03T00:34:58;100924.75;;;37.34;100.00
12991;BME280;6560;57.692;11.958;2022-08-03T00:37:24;100916.03;;;37.76;100.00
12991;BME280;6560;57.692;11.958;2022-08-03T00:39:50;100917.59;;;36.36;100.00
12991;BME280;6560;57.692;11.958;2022-08-03T00:42:15;100913.25;;;38.04;100.00
12991;BME280;6560;57.692;11.958;2022-08-03T00:44:42;100912.56;;;36.18;100.00
12991;BME280;6560;57.692;11.958;2022-08-03T00:47:08;100926.09;;;35.53;100.00
12991;BME280;6560;57.692;11.958;2022-08-03T00:49:38;100905.06;;;38.77;100.00
12991;BME280;6560;57.692;11.958;2022-08-03T00:52:04;100912.16;;;39.30;100.00
12991;BME280;6560;57.692;11.958;2022-08-03T00:54:31;100910.34;;;39.29;100.00
12991;BME280;6560;57.692;11.958;2022-08-03T00:56:57;100910.44;;;38.32;100.00
12991;BME280;6560;57.692;11.958;2022-08-03T00:59:23;100886.31;;;40.59;100.00
12991;BME280;6560;57.692;11.958;2022-08-03T01:01:48;100863.47;;;37.83;100.00
12991;BME280;6560;57.692;11.958;2022-08-03T01:04:14;100906.00;;;38.52;100.00
12991;BME280;6560;57.692;11.958;2022-08-03T01:06:49;100911.16;;;38.37;100.00
12991;BME280;6560;57.692;11.958;2022-08-03T01:12:37;100909.84;;;38.47;100.00
12991;BME280;6560;57.692;11.958;2022-08-03T01:17:56;100908.75;;;34.69;100.00
12991;BME280;6560;57.692;11.958;2022-08-03T01:20:25;100924.81;;;34.43;100.00
12991;BME280;6560;57.692;11.958;2022-08-03T01:23:26;100912.06;;;36.02;100.00
12991;BME280;6560;57.692;11.958;2022-08-03T01:29:05;100921.16;;;34.89;100.00
12991;BME280;6560;57.692;11.958;2022-08-03T01:31:39;100912.56;;;35.45;100.00
12991;BME280;6560;57.692;11.958;2022-08-03T01:34:08;100920.34;;;36.01;100.00
12991;BME280;6560;57.692;11.958;2022-08-03T01:36:38;100918.88;;;35.10;100.00
12991;BME280;6560;57.692;11.958;2022-08-03T01:39:06;100893.03;;;35.96;100.00
12991;BME280;6560;57.692;11.958;2022-08-03T01:41:58;100899.47;;;36.60;100.00
12991;BME280;6560;57.692;11.958;2022-08-03T01:44:29;100907.72;;;35.18;100.00
12991;BME280;6560;57.692;11.958;2022-08-03T01:47:01;100917.91;;;34.68;100.00
12991;BME280;6560;57.692;11.958;2022-08-03T01:49:29;100900.56;;;34.68;100.00
12991;BME280;6560;57.692;11.958;2022-08-03T01:51:56;100898.13;;;37.05;100.00
12991;BME280;6560;57.692;11.958;2022-08-03T01:54:24;100902.25;;;35.92;100.00
12991;BME280;6560;57.692;11.958;2022-08-03T01:56:51;100893.94;;;35.60;100.00
12991;BME280;6560;57.692;11.958;2022-08-03T01:59:19;100897.59;;;37.50;100.00
12991;BME280;6560;57.692;11.958;2022-08-03T02:01:47;100893.31;;;37.14;100.00
12991;BME280;6560;57.692;11.958;2022-08-03T02:04:16;100898.22;;;36.41;100.00
12991;BME280;6560;57.692;11.958;2022-08-03T02:06:44;100895.72;;;35.61;100.00
12991;BME280;6560;57.692;11.958;2022-08-03T02:09:11;100898.41;;;35.25;100.00
12991;BME280;6560;57.692;11.958;2022-08-03T02:11:37;100888.94;;;35.00;100.00
12991;BME280;6560;57.692;11.958;2022-08-03T02:14:05;100898.81;;;36.19;100.00
12991;BME280;6560;57.692;11.958;2022-08-03T02:16:32;100892.41;;;37.13;100.00
12991;BME280;6560;57.692;11.958;2022-08-03T02:18:59;100884.66;;;37.26;100.00
12991;BME280;6560;57.692;11.958;2022-08-03T02:21:27;100887.94;;;36.15;100.00
12991;BME280;6560;57.692;11.958;2022-08-03T02:23:54;100892.69;;;35.37;100.00
12991;BME280;6560;57.692;11.958;2022-08-03T02:26:21;100889.63;;;35.49;100.00
12991;BME280;6560;57.692;11.958;2022-08-03T02:28:48;100893.34;;;35.45;100.00
12991;BME280;6560;57.692;11.958;2022-08-03T02:31:19;100893.78;;;34.87;100.00
12991;BME280;6560;57.692;11.958;2022-08-03T02:33:49;100883.50;;;36.09;100.00
12991;BME280;6560;57.692;11.958;2022-08-03T02:36:21;100865.53;;;37.49;100.00
12991;BME280;6560;57.692;11.958;2022-08-03T02:38:51;100875.75;;;36.88;100.00
12991;BME280;6560;57.692;11.958;2022-08-03T02:41:21;100878.97;;;35.74;100.00
12991;BME280;6560;57.692;11.958;2022-08-03T02:43:51;100886.91;;;36.19;100.00
12991;BME280;6560;57.692;11.958;2022-08-03T02:46:19;100878.22;;;36.68;100.00
12991;BME280;6560;57.692;11.958;2022-08-03T02:48:47;100855.81;;;37.11;100.00
12991;BME280;6560;57.692;11.958;2022-08-03T02:51:15;100880.13;;;36.32;100.00
12991;BME280;6560;57.692;11.958;2022-08-03T02:53:44;100870.97;;;35.64;100.00
12991;BME280;6560;57.692;11.958;2022-08-03T02:56:10;100874.41;;;36.41;100.00
12991;BME280;6560;57.692;11.958;2022-08-03T02:58:38;100878.09;;;36.71;100.00
12991;BME280;6560;57.692;11.958;2022-08-03T03:01:05;100867.38;;;35.97;100.00
12991;BME280;6560;57.692;11.958;2022-08-03T03:03:32;100873.91;;;37.46;100.00
12991;BME280;6560;57.692;11.958;2022-08-03T03:05:58;100850.53;;;36.74;100.00
12991;BME280;6560;57.692;11.958;2022-08-03T03:08:24;100868.69;;;37.37;100.00
12991;BME280;6560;57.692;11.958;2022-08-03T03:10:51;100867.31;;;36.63;100.00
12991;BME280;6560;57.692;11.958;2022-08-03T03:13:18;100852.88;;;37.71;100.00
12991;BME280;6560;57.692;11.958;2022-08-03T03:15:46;100866.16;;;36.72;100.00
12991;BME280;6560;57.692;11.958;2022-08-03T03:18:13;100852.72;;;36.92;100.00
12991;BME280;6560;57.692;11.958;2022-08-03T03:20:40;100854.56;;;38.53;100.00
12991;BME280;6560;57.692;11.958;2022-08-03T03:23:07;100850.47;;;39.10;100.00
12991;BME280;6560;57.692;11.958;2022-08-03T03:25:33;100869.56;;;37.93;100.00
12991;BME280;6560;57.692;11.958;2022-08-03T03:28:00;100846.09;;;37.81;100.00
12991;BME280;6560;57.692;11.958;2022-08-03T03:30:27;100858.25;;;38.52;100.00
12991;BME280;6560;57.692;11.958;2022-08-03T03:32:56;100852.69;;;38.02;100.00
12991;BME280;6560;57.692;11.958;2022-08-03T03:35:22;100822.81;;;37.11;100.00
12991;BME280;6560;57.692;11.958;2022-08-03T03:37:47;100853.78;;;37.72;100.00
12991;BME280;6560;57.692;11.958;2022-08-03T03:40:13;100857.69;;;37.37;100.00
12991;BME280;6560;57.692;11.958;2022-08-03T03:42:39;100848.31;;;37.97;100.00
12991;BME280;6560;57.692;11.958;2022-08-03T03:45:06;100855.34;;;39.03;100.00
12991;BME280;6560;57.692;11.958;2022-08-03T03:47:33;100860.81;;;38.80;100.00
12991;BME280;6560;57.692;11.958;2022-08-03T03:49:59;100853.81;;;37.97;100.00
12991;BME280;6560;57.692;11.958;2022-08-03T03:52:25;100855.75;;;38.69;100.00
12991;BME280;6560;57.692;11.958;2022-08-03T03:54:51;100849.81;;;38.32;100.00
12991;BME280;6560;57.692;11.958;2022-08-03T03:57:16;100855.63;;;37.71;100.00
12991;BME280;6560;57.692;11.958;2022-08-03T03:59:42;100856.38;;;38.01;100.00
12991;BME280;6560;57.692;11.958;2022-08-03T04:02:09;100863.66;;;36.63;100.00
12991;BME280;6560;57.692;11.958;2022-08-03T04:04:36;100841.09;;;38.67;100.00
12991;BME280;6560;57.692;11.958;2022-08-03T04:07:22;100851.03;;;37.16;100.00
12991;BME280;6560;57.692;11.958;2022-08-03T04:10:12;100858.47;;;37.14;100.00
12991;BME280;6560;57.692;11.958;2022-08-03T04:12:58;100632.13;;;35.70;100.00
12991;BME280;6560;57.692;11.958;2022-08-03T04:15:27;100851.06;;;36.87;100.00
12991;BME280;6560;57.692;11.958;2022-08-03T04:17:56;100848.63;;;36.76;100.00
12991;BME280;6560;57.692;11.958;2022-08-03T04:20:22;100849.16;;;35.93;100.00
12991;BME280;6560;57.692;11.958;2022-08-03T04:22:51;100847.81;;;36.09;100.00
12991;BME280;6560;57.692;11.958;2022-08-03T04:25:19;100839.94;;;36.29;100.00
12991;BME280;6560;57.692;11.958;2022-08-03T04:27:48;100842.28;;;36.74;100.00
12991;BME280;6560;57.692;11.958;2022-08-03T04:30:17;100782.09;;;37.48;100.00
12991;BME280;6560;57.692;11.958;2022-08-03T04:32:44;100839.34;;;36.80;100.00
12991;BME280;6560;57.692;11.958;2022-08-03T04:35:15;100842.19;;;36.46;100.00
12991;BME280;6560;57.692;11.958;2022-08-03T04:37:42;100835.72;;;36.49;100.00
12991;BME280;6560;57.692;11.958;2022-08-03T04:40:13;100827.41;;;37.09;100.00
12991;BME280;6560;57.692;11.958;2022-08-03T04:42:39;100847.69;;;37.62;100.00
12991;BME280;6560;57.692;11.958;2022-08-03T04:45:07;100800.88;;;37.08;100.00
12991;BME280;6560;57.692;11.958;2022-08-03T04:47:36;100832.94;;;37.65;100.00
12991;BME280;6560;57.692;11.958;2022-08-03T04:50:03;100835.94;;;37.57;100.00
12991;BME280;6560;57.692;11.958;2022-08-03T04:52:29;100847.44;;;37.42;100.00
12991;BME280;6560;57.692;11.958;2022-08-03T04:54:55;100844.59;;;37.98;100.00
12991;BME280;6560;57.692;11.958;2022-08-03T04:57:21;100839.19;;;39.59;100.00
12991;BME280;6560;57.692;11.958;2022-08-03T04:59:46;100834.81;;;36.79;100.00
12991;BME280;6560;57.692;11.958;2022-08-03T05:02:13;100848.66;;;37.33;100.00
12991;BME280;6560;57.692;11.958;2022-08-03T05:04:40;100823.09;;;37.02;100.00
12991;BME280;6560;57.692;11.958;2022-08-03T05:07:11;100841.25;;;36.78;100.00
12991;BME280;6560;57.692;11.958;2022-08-03T05:09:36;100849.41;;;37.09;100.00
12991;BME280;6560;57.692;11.958;2022-08-03T05:12:03;100850.34;;;37.92;100.00
12991;BME280;6560;57.692;11.958;2022-08-03T05:14:28;100852.59;;;37.53;100.00
12991;BME280;6560;57.692;11.958;2022-08-03T05:16:54;100850.69;;;37.55;100.00
12991;BME280;6560;57.692;11.958;2022-08-03T05:19:19;100851.59;;;38.81;100.00
12991;BME280;6560;57.692;11.958;2022-08-03T05:21:45;100804.91;;;37.78;100.00
12991;BME280;6560;57.692;11.958;2022-08-03T05:24:10;100863.03;;;39.40;100.00
12991;BME280;6560;57.692;11.958;2022-08-03T05:26:36;100857.91;;;37.59;100.00
12991;BME280;6560;57.692;11.958;2022-08-03T05:29:01;100864.81;;;38.96;100.00
12991;BME280;6560;57.692;11.958;2022-08-03T05:31:27;100842.00;;;38.67;100.00
12991;BME280;6560;57.692;11.958;2022-08-03T05:33:53;100856.66;;;37.41;100.00
12991;BME280;6560;57.692;11.958;2022-08-03T05:36:18;100861.19;;;38.71;100.00
12991;BME280;6560;57.692;11.958;2022-08-03T05:38:44;100848.59;;;38.87;100.00
12991;BME280;6560;57.692;11.958;2022-08-03T05:41:09;100859.97;;;36.33;100.00
12991;BME280;6560;57.692;11.958;2022-08-03T05:43:35;100825.31;;;39.17;100.00
12991;BME280;6560;57.692;11.958;2022-08-03T05:46:00;100853.09;;;37.65;100.00
12991;BME280;6560;57.692;11.958;2022-08-03T05:48:26;100849.72;;;37.00;100.00
12991;BME280;6560;57.692;11.958;2022-08-03T05:50:51;100845.44;;;38.97;100.00
12991;BME280;6560;57.692;11.958;2022-08-03T05:53:17;100842.97;;;36.82;100.00
12991;BME280;6560;57.692;11.958;2022-08-03T05:55:42;100793.03;;;39.19;100.00
12991;BME280;6560;57.692;11.958;2022-08-03T05:58:08;100838.50;;;38.14;100.00
12991;BME280;6560;57.692;11.958;2022-08-03T06:00:33;100837.59;;;38.14;100.00
12991;BME280;6560;57.692;11.958;2022-08-03T06:02:59;100847.00;;;38.58;100.00
12991;BME280;6560;57.692;11.958;2022-08-03T06:05:24;100845.97;;;38.60;100.00
12991;BME280;6560;57.692;11.958;2022-08-03T06:07:52;100844.28;;;37.54;100.00
12991;BME280;6560;57.692;11.958;2022-08-03T06:10:18;100850.03;;;38.74;100.00
12991;BME280;6560;57.692;11.958;2022-08-03T06:12:44;100855.22;;;37.56;100.00
12991;BME280;6560;57.692;11.958;2022-08-03T06:15:12;100853.59;;;38.77;100.00
12991;BME280;6560;57.692;11.958;2022-08-03T06:17:47;100858.41;;;38.22;100.00
12991;BME280;6560;57.692;11.958;2022-08-03T06:20:18;100853.94;;;38.91;100.00
12991;BME280;6560;57.692;11.958;2022-08-03T06:22:44;100857.97;;;38.59;100.00
12991;BME280;6560;57.692;11.958;2022-08-03T06:25:10;100854.75;;;40.04;100.00
12991;BME280;6560;57.692;11.958;2022-08-03T06:27:36;100844.75;;;39.37;100.00
12991;BME280;6560;57.692;11.958;2022-08-03T06:30:05;100860.06;;;38.53;100.00
12991;BME280;6560;57.692;11.958;2022-08-03T06:32:32;100852.38;;;39.08;100.00
12991;BME280;6560;57.692;11.958;2022-08-03T06:34:58;100834.94;;;38.36;100.00
12991;BME280;6560;57.692;11.958;2022-08-03T06:37:24;100846.47;;;38.72;100.00
12991;BME280;6560;57.692;11.958;2022-08-03T06:39:51;100830.63;;;39.45;100.00
12991;BME280;6560;57.692;11.958;2022-08-03T06:42:17;100834.75;;;39.77;100.00
12991;BME280;6560;57.692;11.958;2022-08-03T06:44:42;100845.06;;;38.60;100.00
12991;BME280;6560;57.692;11.958;2022-08-03T06:47:08;100850.03;;;38.98;100.00
12991;BME280;6560;57.692;11.958;2022-08-03T06:49:33;100852.06;;;39.15;100.00
12991;BME280;6560;57.692;11.958;2022-08-03T06:51:59;100842.13;;;39.11;100.00
12991;BME280;6560;57.692;11.958;2022-08-03T06:54:24;100834.66;;;39.36;100.00
12991;BME280;6560;57.692;11.958;2022-08-03T06:56:50;100847.38;;;37.71;100.00
12991;BME280;6560;57.692;11.958;2022-08-03T06:59:15;100856.75;;;37.92;100.00
12991;BME280;6560;57.692;11.958;2022-08-03T07:01:41;100862.19;;;38.20;100.00
12991;BME280;6560;57.692;11.958;2022-08-03T07:04:06;100848.06;;;38.04;100.00
12991;BME280;6560;57.692;11.958;2022-08-03T07:06:32;100838.75;;;39.70;100.00
12991;BME280;6560;57.692;11.958;2022-08-03T07:08:58;100831.50;;;38.06;100.00
12991;BME280;6560;57.692;11.958;2022-08-03T07:11:24;100819.81;;;40.03;100.00
12991;BME280;6560;57.692;11.958;2022-08-03T07:13:49;100850.72;;;38.32;100.00
12991;BME280;6560;57.692;11.958;2022-08-03T07:16:15;100854.00;;;37.38;100.00
12991;BME280;6560;57.692;11.958;2022-08-03T07:18:40;100851.41;;;37.33;100.00
12991;BME280;6560;57.692;11.958;2022-08-03T07:21:06;100854.16;;;37.04;100.00
12991;BME280;6560;57.692;11.958;2022-08-03T07:23:33;100808.53;;;38.30;100.00
12991;BME280;6560;57.692;11.958;2022-08-03T07:25:59;100850.00;;;38.01;100.00
12991;BME280;6560;57.692;11.958;2022-08-03T07:28:24;100858.91;;;38.09;100.00
12991;BME280;6560;57.692;11.958;2022-08-03T07:30:50;100818.75;;;37.49;100.00
12991;BME280;6560;57.692;11.958;2022-08-03T07:33:15;100857.88;;;37.86;100.00
12991;BME280;6560;57.692;11.958;2022-08-03T07:35:41;100839.25;;;38.19;100.00
12991;BME280;6560;57.692;11.958;2022-08-03T07:38:06;100861.69;;;39.50;100.00
12991;BME280;6560;57.692;11.958;2022-08-03T07:40:32;100811.66;;;37.42;100.00
12991;BME280;6560;57.692;11.958;2022-08-03T07:42:58;100852.94;;;37.70;100.00
12991;BME280;6560;57.692;11.958;2022-08-03T07:45:24;100828.66;;;36.99;100.00
12991;BME280;6560;57.692;11.958;2022-08-03T07:47:50;100828.72;;;38.31;100.00
12991;BME280;6560;57.692;11.958;2022-08-03T07:50:16;100786.25;;;36.49;100.00
12991;BME280;6560;57.692;11.958;2022-08-03T07:52:41;100837.69;;;37.32;100.00
12991;BME280;6560;57.692;11.958;2022-08-03T07:55:14;100843.41;;;37.26;100.00
12991;BME280;6560;57.692;11.958;2022-08-03T07:57:40;100838.72;;;38.58;100.00
12991;BME280;6560;57.692;11.958;2022-08-03T08:00:11;100826.25;;;39.39;100.00
12991;BME280;6560;57.692;11.958;2022-08-03T08:02:38;100836.16;;;39.22;100.00
12991;BME280;6560;57.692;11.958;2022-08-03T08:05:04;100842.97;;;39.35;100.00
12991;BME280;6560;57.692;11.958;2022-08-03T08:07:31;100829.03;;;39.81;100.00
12991;BME280;6560;57.692;11.958;2022-08-03T08:09:56;100848.13;;;38.52;100.00
12991;BME280;6560;57.692;11.958;2022-08-03T08:12:22;100833.22;;;38.08;100.00
12991;BME280;6560;57.692;11.958;2022-08-03T08:14:47;100837.66;;;38.85;100.00
12991;BME280;6560;57.692;11.958;2022-08-03T08:17:13;100814.13;;;38.04;100.00
12991;BME280;6560;57.692;11.958;2022-08-03T08:19:38;100832.25;;;38.59;100.00
12991;BME280;6560;57.692;11.958;2022-08-03T08:22:04;100846.03;;;37.83;100.00
12991;BME280;6560;57.692;11.958;2022-08-03T08:24:30;100794.34;;;39.11;100.00
12991;BME280;6560;57.692;11.958;2022-08-03T08:26:58;100814.69;;;39.30;100.00
12991;BME280;6560;57.692;11.958;2022-08-03T08:29:24;100821.22;;;39.27;100.00
12991;BME280;6560;57.692;11.958;2022-08-03T08:31:49;100787.25;;;38.34;100.00
12991;BME280;6560;57.692;11.958;2022-08-03T08:34:15;100836.88;;;38.58;100.00
12991;BME280;6560;57.692;11.958;2022-08-03T08:36:41;100825.25;;;40.04;100.00
12991;BME280;6560;57.692;11.958;2022-08-03T08:39:06;100825.13;;;40.07;100.00
12991;BME280;6560;57.692;11.958;2022-08-03T08:41:32;100826.84;;;38.56;100.00
12991;BME280;6560;57.692;11.958;2022-08-03T08:44:01;100759.06;;;39.61;100.00
12991;BME280;6560;57.692;11.958;2022-08-03T08:46:29;100812.06;;;40.31;100.00
12991;BME280;6560;57.692;11.958;2022-08-03T08:48:58;100803.56;;;38.64;100.00
12991;BME280;6560;57.692;11.958;2022-08-03T08:51:27;100824.97;;;38.80;100.00
12991;BME280;6560;57.692;11.958;2022-08-03T08:53:53;100821.38;;;39.01;100.00
12991;BME280;6560;57.692;11.958;2022-08-03T08:56:24;100819.47;;;40.10;100.00
12991;BME280;6560;57.692;11.958;2022-08-03T08:59:07;100820.84;;;40.59;100.00
12991;BME280;6560;57.692;11.958;2022-08-03T09:01:33;100804.03;;;40.05;100.00
12991;BME280;6560;57.692;11.958;2022-08-03T09:03:59;100748.97;;;39.81;100.00
12991;BME280;6560;57.692;11.958;2022-08-03T09:06:24;100822.00;;;39.95;100.00
12991;BME280;6560;57.692;11.958;2022-08-03T09:08:50;100811.78;;;39.33;100.00
12991;BME280;6560;57.692;11.958;2022-08-03T09:11:20;100767.22;;;40.25;100.00
12991;BME280;6560;57.692;11.958;2022-08-03T09:13:45;100822.09;;;41.29;100.00
12991;BME280;6560;57.692;11.958;2022-08-03T09:16:19;100837.50;;;39.33;100.00
12991;BME280;6560;57.692;11.958;2022-08-03T09:18:50;100782.28;;;39.77;100.00
12991;BME280;6560;57.692;11.958;2022-08-03T09:21:23;100821.78;;;40.19;100.00
12991;BME280;6560;57.692;11.958;2022-08-03T09:23:51;100827.78;;;41.62;100.00
12991;BME280;6560;57.692;11.958;2022-08-03T09:26:25;100817.84;;;40.45;100.00
12991;BME280;6560;57.692;11.958;2022-08-03T09:29:08;100779.25;;;38.97;100.00
12991;BME280;6560;57.692;11.958;2022-08-03T09:31:40;100811.81;;;40.56;100.00
12991;BME280;6560;57.692;11.958;2022-08-03T09:34:08;100823.81;;;39.74;100.00
12991;BME280;6560;57.692;11.958;2022-08-03T09:39:02;100831.78;;;38.94;100.00
12991;BME280;6560;57.692;11.958;2022-08-03T09:41:30;100810.88;;;38.87;100.00
12991;BME280;6560;57.692;11.958;2022-08-03T09:43:56;100819.47;;;38.80;100.00
12991;BME280;6560;57.692;11.958;2022-08-03T09:46:21;100800.78;;;39.75;100.00
12991;BME280;6560;57.692;11.958;2022-08-03T09:48:47;100806.84;;;41.02;100.00
12991;BME280;6560;57.692;11.958;2022-08-03T09:51:12;100817.56;;;40.11;100.00
12991;BME280;6560;57.692;11.958;2022-08-03T09:53:45;100819.66;;;38.52;100.00
12991;BME280;6560;57.692;11.958;2022-08-03T09:56:10;100804.97;;;39.63;100.00
12991;BME280;6560;57.692;11.958;2022-08-03T09:58:44;100777.34;;;39.43;100.00
12991;BME280;6560;57.692;11.958;2022-08-03T10:01:10;100815.56;;;39.30;100.00
12991;BME280;6560;57.692;11.958;2022-08-03T10:03:38;100828.06;;;38.72;100.00
12991;BME280;6560;57.692;11.958;2022-08-03T10:06:14;100814.91;;;39.02;100.00
12991;BME280;6560;57.692;11.958;2022-08-03T10:08:40;100800.75;;;39.11;100.00
12991;BME280;6560;57.692;11.958;2022-08-03T10:11:05;100807.38;;;38.60;100.00
12991;BME280;6560;57.692;11.958;2022-08-03T10:13:31;100804.94;;;40.05;100.00
12991;BME280;6560;57.692;11.958;2022-08-03T10:15:57;100818.31;;;39.74;100.00
12991;BME280;6560;57.692;11.958;2022-08-03T10:18:23;100834.84;;;39.54;100.00
12991;BME280;6560;57.692;11.958;2022-08-03T10:20:51;100824.84;;;39.93;100.00
12991;BME280;6560;57.692;11.958;2022-08-03T10:23:18;100807.66;;;38.99;100.00
12991;BME280;6560;57.692;11.958;2022-08-03T10:25:52;100825.06;;;38.78;100.00
12991;BME280;6560;57.692;11.958;2022-08-03T10:28:18;100820.41;;;38.32;100.00
12991;BME280;6560;57.692;11.958;2022-08-03T10:30:48;100817.19;;;38.44;100.00
12991;BME280;6560;57.692;11.958;2022-08-03T10:33:23;100783.56;;;37.85;100.00
12991;BME280;6560;57.692;11.958;2022-08-03T10:35:53;100817.50;;;38.83;100.00
12991;BME280;6560;57.692;11.958;2022-08-03T10:38:27;100814.94;;;37.81;100.00
12991;BME280;6560;57.692;11.958;2022-08-03T10:40:54;100802.41;;;38.22;100.00
12991;BME280;6560;57.692;11.958;2022-08-03T10:43:27;100799.44;;;40.26;100.00
12991;BME280;6560;57.692;11.958;2022-08-03T10:45:56;100806.09;;;40.79;100.00
12991;BME280;6560;57.692;11.958;2022-08-03T10:48:23;100769.19;;;40.02;100.00
12991;BME280;6560;57.692;11.958;2022-08-03T10:50:49;100799.41;;;40.65;100.00
12991;BME280;6560;57.692;11.958;2022-08-03T10:53:15;100802.97;;;40.29;100.00
12991;BME280;6560;57.692;11.958;2022-08-03T10:55:43;100824.50;;;40.01;100.00
12991;BME280;6560;57.692;11.958;2022-08-03T11:01:06;100805.00;;;38.98;100.00
12991;BME280;6560;57.692;11.958;2022-08-03T11:03:32;100768.69;;;37.90;100.00
12991;BME280;6560;57.692;11.958;2022-08-03T11:06:24;100815.94;;;38.76;100.00
12991;BME280;6560;57.692;11.958;2022-08-03T11:11:38;100819.09;;;37.93;100.00
12991;BME280;6560;57.692;11.958;2022-08-03T11:19:05;100818.19;;;40.17;100.00
12991;BME280;6560;57.692;11.958;2022-08-03T11:27:18;100817.22;;;40.18;100.00
12991;BME280;6560;57.692;11.958;2022-08-03T11:35:10;100826.38;;;40.41;100.00
12991;BME280;6560;57.692;11.958;2022-08-03T11:40:34;100822.22;;;41.98;100.00
12991;BME280;6560;57.692;11.958;2022-08-03T11:43:00;100818.66;;;40.29;100.00
12991;BME280;6560;57.692;11.958;2022-08-03T11:45:26;100820.09;;;40.76;100.00
12991;BME280;6560;57.692;11.958;2022-08-03T11:47:53;100831.66;;;40.45;100.00
12991;BME280;6560;57.692;11.958;2022-08-03T11:50:20;100822.16;;;41.63;100.00
12991;BME280;6560;57.692;11.958;2022-08-03T11:52:48;100822.16;;;40.71;100.00
12991;BME280;6560;57.692;11.958;2022-08-03T11:55:18;100840.97;;;41.21;100.00
12991;BME280;6560;57.692;11.958;2022-08-03T11:57:46;100840.97;;;39.17;100.00
12991;BME280;6560;57.692;11.958;2022-08-03T12:05:20;100830.69;;;40.67;100.00
12991;BME280;6560;57.692;11.958;2022-08-03T12:07:45;100830.50;;;39.90;100.00
12991;BME280;6560;57.692;11.958;2022-08-03T12:10:12;100826.28;;;41.73;100.00
12991;BME280;6560;57.692;11.958;2022-08-03T12:12:39;100821.41;;;41.96;100.00
12991;BME280;6560;57.692;11.958;2022-08-03T12:15:05;100813.06;;;40.69;100.00
12991;BME280;6560;57.692;11.958;2022-08-03T12:17:38;100806.41;;;39.30;100.00
12991;BME280;6560;57.692;11.958;2022-08-03T12:20:05;100849.09;;;40.27;100.00
12991;BME280;6560;57.692;11.958;2022-08-03T12:22:31;100838.66;;;41.84;100.00
12991;BME280;6560;57.692;11.958;2022-08-03T12:24:57;100831.38;;;40.51;100.00
12991;BME280;6560;57.692;11.958;2022-08-03T12:27:24;100843.00;;;39.99;100.00
12991;BME280;6560;57.692;11.958;2022-08-03T12:29:54;100843.16;;;39.74;100.00
12991;BME280;6560;57.692;11.958;2022-08-03T12:32:20;100834.88;;;40.75;100.00
12991;BME280;6560;57.692;11.958;2022-08-03T12:34:46;100824.91;;;41.46;100.00
12991;BME280;6560;57.692;11.958;2022-08-03T12:37:12;100834.66;;;40.41;100.00
12991;BME280;6560;57.692;11.958;2022-08-03T12:39:38;100832.13;;;41.85;100.00
12991;BME280;6560;57.692;11.958;2022-08-03T12:42:03;100830.63;;;39.65;100.00
12991;BME280;6560;57.692;11.958;2022-08-03T12:44:31;100833.56;;;41.03;100.00
12991;BME280;6560;57.692;11.958;2022-08-03T12:46:57;100825.69;;;40.36;100.00
12991;BME280;6560;57.692;11.958;2022-08-03T12:49:23;100834.09;;;40.12;100.00
12991;BME280;6560;57.692;11.958;2022-08-03T12:51:54;100841.91;;;40.43;100.00
12991;BME280;6560;57.692;11.958;2022-08-03T12:54:25;100824.47;;;40.99;100.00
12991;BME280;6560;57.692;11.958;2022-08-03T12:59:34;100791.72;;;41.81;100.00
12991;BME280;6560;57.692;11.958;2022-08-03T13:02:01;100831.28;;;40.92;100.00
12991;BME280;6560;57.692;11.958;2022-08-03T13:04:33;100832.19;;;41.49;100.00
12991;BME280;6560;57.692;11.958;2022-08-03T13:07:04;100838.94;;;42.13;100.00
12991;BME280;6560;57.692;11.958;2022-08-03T13:09:40;100784.81;;;40.81;100.00
12991;BME280;6560;57.692;11.958;2022-08-03T13:12:08;100842.22;;;40.76;100.00
12991;BME280;6560;57.692;11.958;2022-08-03T13:14:34;100834.44;;;40.84;100.00
12991;BME280;6560;57.692;11.958;2022-08-03T13:17:00;100838.22;;;41.38;100.00
12991;BME280;6560;57.692;11.958;2022-08-03T13:19:25;100842.19;;;41.51;100.00
12991;BME280;6560;57.692;11.958;2022-08-03T13:21:51;100795.50;;;42.30;100.00
12991;BME280;6560;57.692;11.958;2022-08-03T13:24:16;100821.16;;;42.00;100.00
12991;BME280;6560;57.692;11.958;2022-08-03T13:26:43;100837.00;;;42.48;100.00